Time;durP1;ratioP1;P1;durP2;ratioP2;P2;SDS_P1;SDS_P2;PMS_P1;PMS_P2;Temp;Humidity;BMP_temperature;BMP_pressure;BME280_temperature;BME280_humidity;BME280_pressure;Samples;Min_cycle;Max_cycle;Signal;HPM_P1;HPM_P2
2023/03/07 00:01:39;;;;;;;8.80;4.32;;;7.40;97.10;;;;;;10530964;28;20024;-66
2023/03/07 00:06:40;;;;;;;9.07;4.70;;;7.40;97.10;;;;;;10535152;28;20186;-66
2023/03/07 00:11:40;;;;;;;9.98;4.43;;;7.40;97.20;;;;;;10527804;28;20076;-66
2023/03/07 00:16:41;;;;;;;8.70;4.45;;;7.40;97.20;;;;;;10535191;28;20024;-66
2023/03/07 00:21:41;;;;;;;8.18;4.05;;;7.40;97.20;;;;;;10530148;28;20028;-66
2023/03/07 00:26:42;;;;;;;8.35;4.18;;;7.40;97.20;;;;;;10534372;28;20031;-66
2023/03/07 00:31:42;;;;;;;8.98;4.40;;;7.40;97.20;;;;;;10530402;28;20327;-66
2023/03/07 00:36:43;;;;;;;8.00;3.83;;;7.40;97.20;;;;;;10529792;28;20032;-65
2023/03/07 00:41:44;;;;;;;6.13;3.40;;;7.40;97.20;;;;;;10535647;28;20030;-65
2023/03/07 00:46:44;;;;;;;7.10;2.92;;;7.40;97.30;;;;;;10524890;28;20058;-65
2023/03/07 00:51:45;;;;;;;7.60;3.63;;;7.40;97.30;;;;;;10534354;28;20024;-66
2023/03/07 00:56:45;;;;;;;6.75;2.80;;;7.40;97.30;;;;;;10530552;28;20024;-66
2023/03/07 01:01:46;;;;;;;8.65;3.90;;;7.40;97.30;;;;;;10524511;28;20028;-66
2023/03/07 01:06:48;;;;;;;6.57;3.15;;;7.60;97.40;;;;;;10528594;28;20266;-66
2023/03/07 01:11:48;;;;;;;6.10;2.88;;;7.40;97.30;;;;;;10532859;28;20487;-66
2023/03/07 01:16:49;;;;;;;5.55;2.63;;;7.40;97.30;;;;;;10533219;28;20087;-66
2023/03/07 01:21:49;;;;;;;5.53;2.85;;;7.40;97.30;;;;;;10529488;28;20016;-66
2023/03/07 01:26:50;;;;;;;5.50;2.60;;;7.40;97.40;;;;;;10528341;28;20292;-66
2023/03/07 01:31:51;;;;;;;5.57;2.45;;;7.40;97.60;;;;;;10529794;28;20373;-65
2023/03/07 01:36:51;;;;;;;5.40;2.33;;;7.40;97.40;;;;;;10530183;28;20028;-65
2023/03/07 01:41:52;;;;;;;4.10;2.25;;;7.40;97.40;;;;;;10529787;28;20112;-66
2023/03/07 01:46:56;;;;;;;3.60;1.77;;;7.30;97.30;;;;;;10525303;28;20028;-65
2023/03/07 01:51:59;;;;;;;5.55;2.00;;;7.40;97.40;;;;;;10530392;28;20362;-66
2023/03/07 01:57:02;;;;;;;3.55;1.83;;;7.30;97.40;;;;;;10530578;28;20017;-66
2023/03/07 02:02:08;;;;;;;2.72;1.50;;;7.30;97.40;;;;;;10524051;28;20017;-66
2023/03/07 02:07:09;;;;;;;4.97;1.92;;;7.30;97.70;;;;;;10535812;28;20452;-66
2023/03/07 02:12:10;;;;;;;2.83;1.50;;;7.30;97.40;;;;;;10538408;28;20043;-66
2023/03/07 02:17:11;;;;;;;2.72;1.48;;;7.30;97.40;;;;;;10534519;28;20077;-66
2023/03/07 02:22:16;;;;;;;2.85;1.42;;;7.30;97.40;;;;;;10535096;28;20016;-66
2023/03/07 02:27:17;;;;;;;2.90;1.00;;;7.30;97.50;;;;;;10543804;28;20025;-66
2023/03/07 02:32:17;;;;;;;3.10;1.45;;;7.30;97.50;;;;;;10538748;28;20036;-66
2023/03/07 02:37:23;;;;;;;3.20;1.63;;;7.30;97.50;;;;;;10539719;28;20484;-66
2023/03/07 02:42:27;;;;;;;2.10;1.10;;;7.30;97.50;;;;;;10537315;28;20059;-65
2023/03/07 02:47:28;;;;;;;3.03;1.30;;;7.30;97.50;;;;;;10544273;27;20157;-66
2023/03/07 02:52:29;;;;;;;2.88;1.35;;;7.30;97.50;;;;;;10538351;28;20036;-66
2023/03/07 02:57:30;;;;;;;2.30;1.00;;;7.30;97.50;;;;;;10538227;28;20157;-66
2023/03/07 03:02:31;;;;;;;2.63;1.25;;;7.30;97.50;;;;;;10541633;28;20600;-66
2023/03/07 03:07:31;;;;;;;2.17;1.00;;;7.30;97.50;;;;;;10542548;28;20024;-65
2023/03/07 03:12:32;;;;;;;3.90;1.05;;;7.50;97.60;;;;;;10534039;28;20028;-65
2023/03/07 03:17:32;;;;;;;1.48;0.82;;;7.20;97.50;;;;;;10534285;28;20036;-66
2023/03/07 03:22:33;;;;;;;1.92;0.95;;;7.20;97.50;;;;;;10529544;28;20024;-66
2023/03/07 03:27:34;;;;;;;2.55;0.82;;;7.20;97.80;;;;;;10531361;28;20119;-66
2023/03/07 03:32:38;;;;;;;2.83;1.13;;;7.20;97.50;;;;;;10520632;28;20036;-66
2023/03/07 03:37:39;;;;;;;0.82;0.52;;;7.20;97.60;;;;;;10528529;28;20031;-66
2023/03/07 03:42:41;;;;;;;2.88;1.10;;;7.20;97.50;;;;;;10527997;28;20020;-66
2023/03/07 03:47:42;;;;;;;1.58;0.70;;;7.20;97.60;;;;;;10525588;28;20418;-66
2023/03/07 03:52:43;;;;;;;1.33;0.70;;;7.20;97.50;;;;;;10519468;28;20039;-66
2023/03/07 03:57:44;;;;;;;4.03;0.80;;;7.20;97.60;;;;;;10528595;28;20035;-66
2023/03/07 04:02:48;;;;;;;1.63;0.80;;;7.20;97.60;;;;;;10528365;28;20020;-66
2023/03/07 04:07:48;;;;;;;3.10;1.08;;;7.20;97.60;;;;;;10529426;28;20557;-65
2023/03/07 04:12:49;;;;;;;1.73;0.90;;;7.20;97.60;;;;;;10528142;28;20016;-66
2023/03/07 04:17:50;;;;;;;0.90;0.57;;;7.20;97.60;;;;;;10521874;28;20115;-66
2023/03/07 04:22:50;;;;;;;1.75;0.80;;;7.20;97.60;;;;;;10524161;28;20331;-66
2023/03/07 04:27:51;;;;;;;2.33;0.85;;;7.20;97.60;;;;;;10519988;28;20027;-66
2023/03/07 04:32:51;;;;;;;2.58;0.73;;;7.20;97.60;;;;;;10534502;28;20530;-66
2023/03/07 04:37:52;;;;;;;1.20;0.57;;;7.20;97.60;;;;;;10517092;28;20411;-66
2023/03/07 04:42:52;;;;;;;1.17;0.57;;;7.20;97.60;;;;;;10520497;28;20030;-66
2023/03/07 04:47:53;;;;;;;1.40;0.52;;;7.20;97.60;;;;;;10529372;28;20100;-66
2023/03/07 04:52:54;;;;;;;1.75;0.60;;;7.20;97.60;;;;;;10531446;28;20254;-66
2023/03/07 04:57:56;;;;;;;0.63;0.40;;;7.20;97.60;;;;;;10522568;28;20034;-66
2023/03/07 05:02:57;;;;;;;1.05;0.88;;;7.20;97.60;;;;;;10526161;28;20188;-66
2023/03/07 05:07:58;;;;;;;4.05;0.60;;;7.20;97.60;;;;;;10529781;28;20013;-66
2023/03/07 05:13:00;;;;;;;3.05;0.63;;;7.20;97.60;;;;;;10522032;28;20387;-66
2023/03/07 05:18:01;;;;;;;2.03;0.50;;;7.20;97.60;;;;;;10526654;28;20399;-66
2023/03/07 05:23:01;;;;;;;2.63;0.40;;;7.10;97.60;;;;;;10518431;28;20023;-66
2023/03/07 05:28:02;;;;;;;1.40;0.50;;;7.20;97.60;;;;;;10524162;28;20044;-66
2023/03/07 05:33:03;;;;;;;1.52;0.57;;;7.20;97.60;;;;;;10526332;28;20036;-66
2023/03/07 05:38:03;;;;;;;1.45;0.32;;;7.20;97.90;;;;;;10523463;28;20019;-66
2023/03/07 05:43:04;;;;;;;0.75;0.43;;;7.10;97.60;;;;;;10524648;28;20099;-66
2023/03/07 05:48:05;;;;;;;1.05;0.50;;;7.20;97.60;;;;;;10525284;28;20625;-66
2023/03/07 05:53:05;;;;;;;0.75;0.47;;;7.10;97.60;;;;;;10521149;28;20078;-66
2023/03/07 05:58:06;;;;;;;3.38;0.75;;;7.10;97.60;;;;;;10521532;28;20013;-66
2023/03/07 06:03:07;;;;;;;2.53;0.60;;;7.10;97.60;;;;;;10529571;28;20035;-66
2023/03/07 06:08:07;;;;;;;1.27;0.45;;;7.10;97.60;;;;;;10529894;28;20019;-66
2023/03/07 06:13:17;;;;;;;1.63;0.47;;;7.10;97.60;;;;;;10527633;28;20020;-66
2023/03/07 06:18:18;;;;;;;0.80;0.40;;;7.20;97.70;;;;;;10510456;28;20097;-66
2023/03/07 06:23:19;;;;;;;1.20;0.35;;;7.10;97.60;;;;;;10526976;28;20112;-65
2023/03/07 06:28:20;;;;;;;1.13;0.60;;;7.10;97.60;;;;;;10526098;28;20024;-64
2023/03/07 06:33:20;;;;;;;1.85;0.40;;;7.10;97.60;;;;;;10521240;28;20036;-65
2023/03/07 06:38:21;;;;;;;1.85;0.65;;;7.20;97.70;;;;;;10520465;28;20024;-66
2023/03/07 06:43:22;;;;;;;1.30;0.57;;;7.20;97.60;;;;;;10506605;28;20028;-65
2023/03/07 06:48:23;;;;;;;1.85;0.40;;;7.20;97.60;;;;;;10527635;28;20031;-65
2023/03/07 06:53:23;;;;;;;0.70;0.30;;;6.10;97.40;;;;;;10520458;28;20411;-65
2023/03/07 06:58:24;;;;;;;0.82;0.35;;;7.10;97.70;;;;;;10525763;28;20031;-65
2023/03/07 07:03:25;;;;;;;2.00;0.60;;;7.10;97.70;;;;;;10509762;28;20036;-65
2023/03/07 07:08:25;;;;;;;0.95;0.40;;;7.10;97.70;;;;;;10523096;28;20116;-65
2023/03/07 07:13:26;;;;;;;1.20;0.50;;;7.10;97.70;;;;;;10516248;28;20042;-65
2023/03/07 07:18:26;;;;;;;2.97;0.52;;;7.10;97.80;;;;;;10511927;28;20312;-64
2023/03/07 07:23:27;;;;;;;1.10;0.30;;;7.10;97.70;;;;;;10529369;28;20544;-65
2023/03/07 07:28:28;;;;;;;2.90;0.70;;;7.10;97.80;;;;;;10528019;28;20060;-65
2023/03/07 07:33:30;;;;;;;2.88;0.60;;;7.10;97.70;;;;;;10525729;28;20115;-65
2023/03/07 07:38:31;;;;;;;1.63;0.50;;;7.10;97.80;;;;;;10528524;28;20210;-65
2023/03/07 07:43:32;;;;;;;1.92;0.40;;;7.10;97.80;;;;;;10527436;28;20032;-65
2023/03/07 07:48:33;;;;;;;1.80;0.70;;;7.10;97.80;;;;;;10530288;28;20027;-65
2023/03/07 07:53:34;;;;;;;1.52;0.65;;;7.10;97.80;;;;;;10529410;28;20046;-65
2023/03/07 07:58:34;;;;;;;0.75;0.30;;;7.10;97.80;;;;;;10513317;28;20379;-65
2023/03/07 08:03:35;;;;;;;1.13;0.47;;;7.10;97.70;;;;;;10523781;28;20032;-65
2023/03/07 08:08:36;;;;;;;1.55;0.40;;;7.10;97.70;;;;;;10525976;28;20069;-65
2023/03/07 08:13:36;;;;;;;1.48;0.70;;;7.10;97.70;;;;;;10530233;28;20138;-65
2023/03/07 08:18:37;;;;;;;3.88;0.68;;;7.10;97.70;;;;;;10527316;28;20436;-65
2023/03/07 08:23:41;;;;;;;4.70;0.60;;;7.10;97.70;;;;;;10517060;28;20029;-65
2023/03/07 08:28:42;;;;;;;1.02;0.65;;;7.10;97.70;;;;;;10531353;28;20081;-65
2023/03/07 08:33:44;;;;;;;0.93;0.57;;;7.10;97.70;;;;;;10523189;28;20060;-65
2023/03/07 08:38:50;;;;;;;1.13;0.40;;;7.10;97.70;;;;;;10519280;28;20021;-65
2023/03/07 08:43:52;;;;;;;1.58;0.45;;;7.10;97.70;;;;;;10525360;28;20069;-65
2023/03/07 08:48:52;;;;;;;1.67;0.50;;;7.10;97.70;;;;;;10537082;28;20023;-65
2023/03/07 08:53:53;;;;;;;0.63;0.32;;;7.20;97.70;;;;;;10532853;28;20023;-65
2023/03/07 08:58:53;;;;;;;1.15;0.40;;;7.20;97.60;;;;;;10525893;28;20487;-65
2023/03/07 09:03:54;;;;;;;2.92;0.60;;;7.20;97.70;;;;;;10530587;28;20036;-65
2023/03/07 09:08:55;;;;;;;1.10;0.40;;;7.20;97.80;;;;;;10517898;28;20035;-65
2023/03/07 09:13:55;;;;;;;4.20;0.50;;;7.20;97.50;;;;;;10516686;28;20107;-65
2023/03/07 09:18:56;;;;;;;2.72;0.50;;;7.20;97.50;;;;;;10508760;28;20016;-65
2023/03/07 09:23:56;;;;;;;1.25;0.30;;;7.30;97.50;;;;;;10518652;28;20028;-65
2023/03/07 09:28:57;;;;;;;0.63;0.45;;;7.20;97.50;;;;;;10504223;28;20032;-65
2023/03/07 09:33:58;;;;;;;2.63;0.70;;;7.20;97.50;;;;;;10508954;28;20016;-65
2023/03/07 09:38:58;;;;;;;1.65;0.60;;;7.20;97.50;;;;;;10512359;28;20021;-65
2023/03/07 09:44:03;;;;;;;1.23;0.50;;;7.20;97.50;;;;;;10522120;28;20045;-65
2023/03/07 09:49:40;;;;;;;1.45;0.35;;;7.20;97.60;;;;;;10503071;28;20024;-65
2023/03/07 09:54:45;;;;;;;2.88;0.63;;;7.30;97.50;;;;;;10510508;28;20040;-65
2023/03/07 10:00:10;;;;;;;1.17;0.50;;;7.30;97.50;;;;;;10518917;28;20113;-65
2023/03/07 10:05:42;;;;;;;1.92;0.50;;;7.40;97.50;;;;;;10506736;28;20036;-65
2023/03/07 10:10:51;;;;;;;2.10;0.50;;;7.40;97.50;;;;;;10507981;28;20063;-65
2023/03/07 10:15:58;;;;;;;0.52;0.30;;;7.40;97.40;;;;;;10516126;28;20415;-65
2023/03/07 10:21:08;;;;;;;1.75;0.50;;;7.40;97.40;;;;;;10517811;28;20023;-65
2023/03/07 10:26:12;;;;;;;1.73;0.50;;;7.40;97.40;;;;;;10507178;28;20063;-65
2023/03/07 10:31:24;;;;;;;1.08;0.43;;;7.50;97.40;;;;;;10511101;28;20155;-65
2023/03/07 10:36:43;;;;;;;0.50;0.32;;;7.50;97.40;;;;;;10513493;28;20101;-65
2023/03/07 10:41:43;;;;;;;;;;;6.60;97.10;;;;;;10526130;28;20472;-65
2023/03/07 10:46:45;;;;;;;0.43;0.30;;;7.50;97.40;;;;;;10523408;28;19915;-65
2023/03/07 10:52:05;;;;;;;4.28;0.73;;;7.60;97.20;;;;;;10526261;28;20020;-65
2023/03/07 10:57:12;;;;;;;0.88;0.45;;;7.60;97.20;;;;;;10529485;28;20355;-65
2023/03/07 11:02:43;;;;;;;1.95;0.40;;;7.70;97.20;;;;;;10526878;28;20026;-65
2023/03/07 11:07:44;;;;;;;1.08;0.40;;;7.70;97.20;;;;;;10528006;28;20385;-65
2023/03/07 11:12:45;;;;;;;0.40;0.30;;;7.70;97.10;;;;;;10515980;28;20037;-65
2023/03/07 11:17:47;;;;;;;0.73;0.40;;;7.70;97.10;;;;;;10513604;28;20170;-65
2023/03/07 11:22:49;;;;;;;3.47;0.40;;;7.80;97.10;;;;;;10509789;28;20029;-66
2023/03/07 11:27:51;;;;;;;1.90;0.52;;;7.80;97.10;;;;;;10521162;28;20467;-65
2023/03/07 11:33:19;;;;;;;0.95;0.45;;;7.80;97.10;;;;;;10521339;28;20063;-65
2023/03/07 11:38:49;;;;;;;1.15;0.40;;;7.80;97.00;;;;;;10526083;28;20494;-65
2023/03/07 11:44:23;;;;;;;1.08;0.40;;;7.90;97.10;;;;;;10524457;28;20511;-65
2023/03/07 11:49:43;;;;;;;1.48;0.50;;;7.90;97.10;;;;;;10527334;28;20787;-65
2023/03/07 11:55:20;;;;;;;1.42;0.55;;;7.90;97.10;;;;;;10519981;28;20040;-65
2023/03/07 12:00:31;;;;;;;1.38;0.40;;;7.90;97.10;;;;;;10523032;28;20031;-65
2023/03/07 12:05:35;;;;;;;1.13;0.40;;;8.00;97.10;;;;;;10528991;28;20024;-65
2023/03/07 12:10:51;;;;;;;0.75;0.35;;;8.00;97.00;;;;;;10527037;28;20032;-65
2023/03/07 12:16:16;;;;;;;1.00;0.40;;;8.00;97.00;;;;;;10519675;28;20181;-65
2023/03/07 12:21:22;;;;;;;1.45;0.60;;;8.00;97.00;;;;;;10509647;28;20122;-65
2023/03/07 12:26:40;;;;;;;0.57;0.38;;;8.10;97.00;;;;;;10514329;28;20534;-65
2023/03/07 12:31:50;;;;;;;0.98;0.50;;;8.10;97.00;;;;;;10518178;28;20089;-65
2023/03/07 12:37:11;;;;;;;2.30;0.40;;;8.10;97.00;;;;;;10519520;28;20028;-65
2023/03/07 12:42:41;;;;;;;1.38;0.47;;;8.10;97.00;;;;;;10518891;28;20023;-65
2023/03/07 12:47:54;;;;;;;1.83;0.43;;;8.10;97.00;;;;;;10525752;28;20058;-65
2023/03/07 12:53:09;;;;;;;1.25;0.50;;;8.10;97.00;;;;;;10523815;28;20344;-65
2023/03/07 12:58:31;;;;;;;1.55;0.30;;;8.10;97.10;;;;;;10515524;28;20036;-66
2023/03/07 13:03:53;;;;;;;1.30;0.50;;;8.10;97.10;;;;;;10523411;28;20418;-65
2023/03/07 13:08:57;;;;;;;1.50;0.35;;;8.00;97.10;;;;;;10515455;28;20028;-65
2023/03/07 13:14:01;;;;;;;0.57;0.32;;;8.00;97.20;;;;;;10512030;28;20036;-65
2023/03/07 13:19:33;;;;;;;1.27;0.50;;;8.00;97.20;;;;;;10519599;28;20016;-65
2023/03/07 13:24:34;;;;;;;2.97;0.50;;;8.10;97.20;;;;;;10514885;28;20051;-66
2023/03/07 13:30:09;;;;;;;1.23;0.40;;;8.10;97.20;;;;;;10513564;28;20485;-66
2023/03/07 13:35:09;;;;;;;1.25;0.30;;;8.10;97.20;;;;;;10503550;28;20583;-66
2023/03/07 13:40:34;;;;;;;1.50;0.40;;;8.10;97.20;;;;;;10519108;28;20016;-66
2023/03/07 13:45:37;;;;;;;1.40;0.35;;;8.20;97.20;;;;;;10511821;28;20096;-66
2023/03/07 13:50:41;;;;;;;2.15;0.50;;;8.20;97.20;;;;;;10523146;28;20028;-66
2023/03/07 13:56:03;;;;;;;0.63;0.40;;;8.20;97.20;;;;;;10522431;28;20480;-65
2023/03/07 14:01:12;;;;;;;2.13;0.68;;;8.20;97.20;;;;;;10520594;28;20224;-65
2023/03/07 14:06:18;;;;;;;1.48;0.47;;;8.20;97.20;;;;;;10525280;28;20080;-66
2023/03/07 14:11:57;;;;;;;0.68;0.50;;;8.20;97.20;;;;;;10531844;28;20451;-66
2023/03/07 14:17:00;;;;;;;;;;;8.20;97.20;;;;;;10530003;28;20036;-65
2023/03/07 14:22:12;;;;;;;1.95;0.30;;;8.10;97.20;;;;;;10526550;28;20388;-65
2023/03/07 14:27:15;;;;;;;2.25;0.60;;;8.10;97.30;;;;;;10526361;28;20470;-66
2023/03/07 14:32:23;;;;;;;1.90;0.50;;;8.10;97.30;;;;;;10528041;28;20035;-65
2023/03/07 14:37:26;;;;;;;1.27;0.50;;;8.10;97.30;;;;;;10529345;28;20498;-65
2023/03/07 14:42:36;;;;;;;1.17;0.65;;;8.10;97.40;;;;;;10518072;28;20072;-65
2023/03/07 14:47:55;;;;;;;;;;;8.10;97.40;;;;;;10525337;28;20096;-65
2023/03/07 14:53:04;;;;;;;1.52;0.60;;;8.10;97.40;;;;;;10530867;28;19911;-66
2023/03/07 14:58:05;;;;;;;0.80;0.75;;;8.10;97.40;;;;;;10526638;28;20105;-65
2023/03/07 15:03:11;;;;;;;1.20;0.90;;;8.10;97.60;;;;;;10531293;28;20020;-65
2023/03/07 15:08:29;;;;;;;0.70;0.30;;;8.00;97.50;;;;;;10532148;28;20048;-66
2023/03/07 15:13:51;;;;;;;2.88;0.60;;;8.00;97.50;;;;;;10535065;28;20347;-65
2023/03/07 15:19:03;;;;;;;0.65;0.30;;;8.00;97.50;;;;;;10535617;28;20024;-65
2023/03/07 15:24:04;;;;;;;1.58;0.52;;;8.00;97.50;;;;;;10533969;28;20032;-66
2023/03/07 15:29:07;;;;;;;2.45;0.63;;;8.00;97.50;;;;;;10527835;28;20027;-66
2023/03/07 15:34:10;;;;;;;1.70;0.40;;;8.00;97.50;;;;;;10523652;28;20035;-66
2023/03/07 15:39:33;;;;;;;0.82;0.40;;;8.00;97.60;;;;;;10535083;28;20024;-65
2023/03/07 15:44:35;;;;;;;0.90;0.60;;;8.00;97.50;;;;;;10527440;28;20032;-66
2023/03/07 15:49:40;;;;;;;2.40;0.55;;;8.00;97.60;;;;;;10529658;28;20039;-65
2023/03/07 15:54:42;;;;;;;1.17;0.40;;;7.90;97.70;;;;;;10525211;28;20043;-66
2023/03/07 16:00:15;;;;;;;2.47;0.30;;;7.90;97.70;;;;;;10525821;28;20091;-65
2023/03/07 16:05:18;;;;;;;1.00;0.55;;;7.90;97.70;;;;;;10525433;28;20209;-66
2023/03/07 16:10:20;;;;;;;0.93;0.40;;;7.90;97.80;;;;;;10516866;28;20034;-68
2023/03/07 16:15:22;;;;;;;2.30;0.40;;;7.90;97.70;;;;;;10520113;28;20078;-65
2023/03/07 16:20:26;;;;;;;1.02;0.38;;;7.90;97.80;;;;;;10530455;28;20111;-65
2023/03/07 16:25:30;;;;;;;1.40;0.47;;;7.90;97.80;;;;;;10527028;28;20059;-64
2023/03/07 16:30:31;;;;;;;2.38;0.50;;;7.90;97.80;;;;;;10514611;28;20036;-66
2023/03/07 16:35:32;;;;;;;1.33;0.50;;;7.90;97.80;;;;;;10513738;28;20051;-66
2023/03/07 16:40:33;;;;;;;2.40;0.88;;;7.80;98.10;;;;;;10516266;28;20081;-66
2023/03/07 16:45:34;;;;;;;2.05;0.80;;;7.80;97.90;;;;;;10504138;28;20034;-66
2023/03/07 16:50:35;;;;;;;1.45;0.93;;;7.70;97.90;;;;;;10510110;28;20041;-66
2023/03/07 16:55:37;;;;;;;1.65;0.85;;;7.70;98.00;;;;;;10516285;28;20502;-65
2023/03/07 17:00:38;;;;;;;1.45;0.80;;;7.60;98.00;;;;;;10519688;28;20008;-65
2023/03/07 17:05:39;;;;;;;3.60;1.30;;;7.60;98.00;;;;;;10518995;28;20119;-65
2023/03/07 17:10:40;;;;;;;1.77;0.63;;;7.50;97.90;;;;;;10525666;28;20017;-66
2023/03/07 17:15:40;;;;;;;1.67;0.93;;;7.50;97.90;;;;;;10526493;28;20467;-66
2023/03/07 17:20:41;;;;;;;1.45;0.80;;;7.50;97.90;;;;;;10512908;28;20027;-65
2023/03/07 17:25:41;;;;;;;2.60;0.88;;;7.50;97.90;;;;;;10522601;28;20396;-65
2023/03/07 17:30:44;;;;;;;1.85;0.65;;;7.50;97.90;;;;;;10507304;28;20554;-65
2023/03/07 17:35:44;;;;;;;2.22;1.15;;;7.50;97.90;;;;;;10519528;28;20040;-65
2023/03/07 17:40:45;;;;;;;3.75;1.40;;;7.50;97.90;;;;;;10521881;28;20042;-66
2023/03/07 17:45:46;;;;;;;7.35;0.90;;;7.50;97.80;;;;;;10516743;28;20399;-65
2023/03/07 17:50:46;;;;;;;1.50;0.90;;;7.40;97.80;;;;;;10526455;28;20028;-65
2023/03/07 17:55:47;;;;;;;2.92;0.93;;;7.40;97.80;;;;;;10524325;28;20028;-65
2023/03/07 18:00:47;;;;;;;1.40;0.95;;;7.40;97.80;;;;;;10521339;28;20047;-65
2023/03/07 18:05:48;;;;;;;1.95;0.93;;;7.40;97.80;;;;;;10515300;28;20081;-64
2023/03/07 18:10:48;;;;;;;3.08;1.00;;;7.40;97.90;;;;;;10516963;28;20380;-65
2023/03/07 18:15:49;;;;;;;1.33;0.90;;;7.40;97.90;;;;;;10522802;28;20166;-65
2023/03/07 18:21:04;;;;;;;2.67;1.02;;;7.40;97.90;;;;;;10522210;28;20043;-65
2023/03/07 18:26:11;;;;;;;2.92;0.65;;;7.40;97.90;;;;;;10517462;28;20609;-65
2023/03/07 18:31:23;;;;;;;1.35;0.70;;;7.40;97.90;;;;;;10518365;28;20060;-65
2023/03/07 18:36:24;;;;;;;1.10;0.70;;;7.30;97.90;;;;;;10520487;28;20029;-65
2023/03/07 18:41:26;;;;;;;2.83;1.00;;;7.30;97.90;;;;;;10525425;28;20016;-65
2023/03/07 18:46:31;;;;;;;1.00;0.80;;;7.30;97.90;;;;;;10527379;28;20031;-65
2023/03/07 18:51:31;;;;;;;0.98;0.77;;;7.30;97.90;;;;;;10529762;28;20028;-65
2023/03/07 18:56:32;;;;;;;2.00;1.00;;;7.30;97.90;;;;;;10518023;28;20380;-65
2023/03/07 19:01:34;;;;;;;5.85;1.27;;;7.30;97.90;;;;;;10513085;28;20028;-65
2023/03/07 19:06:39;;;;;;;0.95;0.73;;;7.20;97.90;;;;;;10521924;28;20028;-65
2023/03/07 19:11:39;;;;;;;1.83;0.93;;;7.20;97.90;;;;;;10520759;28;20032;-65
2023/03/07 19:16:40;;;;;;;1.77;0.85;;;7.20;97.90;;;;;;10501331;28;20028;-65
2023/03/07 19:21:41;;;;;;;1.58;0.85;;;7.20;97.90;;;;;;10513462;28;20107;-65
2023/03/07 19:26:42;;;;;;;1.98;1.00;;;7.10;97.90;;;;;;10518635;28;20081;-65
2023/03/07 19:31:43;;;;;;;2.25;0.77;;;7.10;97.90;;;;;;10518914;28;20120;-65
2023/03/07 19:36:43;;;;;;;2.17;1.02;;;7.10;98.00;;;;;;10516696;28;20101;-65
2023/03/07 19:41:46;;;;;;;1.77;1.20;;;7.10;98.00;;;;;;10516718;28;20106;-66
2023/03/07 19:46:47;;;;;;;2.15;0.95;;;7.00;98.00;;;;;;10521898;28;20028;-65
2023/03/07 19:51:48;;;;;;;1.90;1.00;;;7.00;98.00;;;;;;10522506;28;20495;-65
2023/03/07 19:56:48;;;;;;;1.65;0.95;;;7.00;98.00;;;;;;10509685;28;20552;-65
2023/03/07 20:01:49;;;;;;;1.77;1.00;;;7.00;98.00;;;;;;10515853;28;20055;-65
2023/03/07 20:06:50;;;;;;;1.92;0.90;;;7.00;98.00;;;;;;10510701;28;20297;-65
2023/03/07 20:11:50;;;;;;;2.50;0.93;;;6.90;98.00;;;;;;10520599;28;20036;-65
2023/03/07 20:16:51;;;;;;;1.25;0.80;;;6.90;98.00;;;;;;10513277;28;20062;-65
2023/03/07 20:21:51;;;;;;;1.73;0.80;;;7.80;98.20;;;;;;10514370;28;20020;-65
2023/03/07 20:26:52;;;;;;;2.78;0.82;;;6.90;98.00;;;;;;10515643;28;20080;-65
2023/03/07 20:31:53;;;;;;;2.30;0.73;;;6.80;98.00;;;;;;10519940;28;20115;-65
2023/03/07 20:36:54;;;;;;;1.17;0.85;;;6.80;98.00;;;;;;10509273;28;20069;-65
2023/03/07 20:41:54;;;;;;;1.55;0.80;;;6.80;98.00;;;;;;10512711;28;20077;-65
2023/03/07 20:46:55;;;;;;;1.48;0.60;;;6.80;98.00;;;;;;10516415;28;20020;-65
2023/03/07 20:51:55;;;;;;;1.88;0.75;;;6.70;98.00;;;;;;10522884;28;20583;-65
2023/03/07 20:56:56;;;;;;;1.75;0.77;;;6.70;98.00;;;;;;10513535;28;20087;-65
2023/03/07 21:01:57;;;;;;;0.85;0.57;;;6.70;98.00;;;;;;10512907;28;20170;-65
2023/03/07 21:06:57;;;;;;;1.08;0.80;;;6.70;98.00;;;;;;10508196;28;20028;-65
2023/03/07 21:11:58;;;;;;;1.80;0.85;;;6.70;98.00;;;;;;10514928;28;20025;-65
2023/03/07 21:17:01;;;;;;;2.17;1.00;;;6.60;98.00;;;;;;10511137;28;20024;-65
2023/03/07 21:22:02;;;;;;;1.08;0.73;;;6.60;98.00;;;;;;10509898;28;20044;-65
2023/03/07 21:27:02;;;;;;;0.70;0.52;;;6.60;98.00;;;;;;10502005;28;20078;-65
2023/03/07 21:32:03;;;;;;;1.88;0.75;;;6.60;98.00;;;;;;10492885;28;20029;-65
2023/03/07 21:37:04;;;;;;;1.95;0.93;;;6.60;98.00;;;;;;10509898;28;20043;-66
2023/03/07 21:42:04;;;;;;;1.58;0.90;;;6.60;98.00;;;;;;10512417;28;20036;-65
2023/03/07 21:47:05;;;;;;;2.17;0.93;;;6.50;98.00;;;;;;10495895;22;20045;-84
2023/03/07 21:52:05;;;;;;;1.83;0.80;;;6.50;98.00;;;;;;10449325;28;20025;-83
2023/03/07 21:57:07;;;;;;;1.55;0.90;;;6.50;98.00;;;;;;10460495;28;20024;-83
2023/03/07 22:02:09;;;;;;;0.82;0.68;;;6.50;98.00;;;;;;10463876;28;20451;-83
2023/03/07 22:07:10;;;;;;;1.50;0.80;;;6.40;98.00;;;;;;10471429;28;20044;-82
2023/03/07 22:12:10;;;;;;;0.77;0.60;;;6.40;98.00;;;;;;10464804;28;20027;-83
2023/03/07 22:17:11;;;;;;;1.33;0.77;;;7.40;98.20;;;;;;10463663;28;20602;-83
2023/03/07 22:22:12;;;;;;;1.42;1.00;;;6.40;98.00;;;;;;10451829;28;20028;-83
2023/03/07 22:27:12;;;;;;;2.38;0.93;;;6.40;98.00;;;;;;10475694;28;20021;-83
2023/03/07 22:32:13;;;;;;;2.80;0.85;;;6.40;98.00;;;;;;10467405;28;20664;-81
2023/03/07 22:37:14;;;;;;;2.50;1.13;;;6.60;98.00;;;;;;10468484;28;20032;-82
2023/03/07 22:42:14;;;;;;;2.67;1.40;;;6.30;98.00;;;;;;10470690;28;20021;-84
2023/03/07 22:47:15;;;;;;;2.65;0.88;;;6.30;98.00;;;;;;10476472;28;20036;-83
2023/03/07 22:52:16;;;;;;;1.25;0.93;;;6.30;98.00;;;;;;10476217;28;20033;-82
2023/03/07 22:57:16;;;;;;;1.45;0.95;;;6.30;98.00;;;;;;10472409;28;20027;-84
2023/03/07 23:02:17;;;;;;;1.30;0.90;;;6.30;98.00;;;;;;10469500;28;20017;-85
2023/03/07 23:07:19;;;;;;;1.63;0.90;;;6.20;98.00;;;;;;10464330;28;20504;-84
2023/03/07 23:12:19;;;;;;;1.63;0.68;;;7.20;98.20;;;;;;10466206;28;20025;-82
2023/03/07 23:17:20;;;;;;;2.58;0.90;;;7.70;98.30;;;;;;10452267;28;20020;-81
2023/03/07 23:22:21;;;;;;;1.10;0.80;;;6.20;98.00;;;;;;10469836;28;20017;-83
2023/03/07 23:27:21;;;;;;;0.98;0.70;;;6.20;98.00;;;;;;10464572;28;20120;-84
2023/03/07 23:32:22;;;;;;;1.17;0.90;;;6.20;98.00;;;;;;10468667;28;20033;-84
2023/03/07 23:37:23;;;;;;;1.45;0.80;;;6.10;97.90;;;;;;10460827;28;20025;-83
2023/03/07 23:42:23;;;;;;;2.33;0.93;;;6.10;97.90;;;;;;10467926;28;20016;-82
2023/03/07 23:47:24;;;;;;;1.33;0.80;;;6.10;97.90;;;;;;10467753;28;20033;-83
2023/03/07 23:52:25;;;;;;;1.73;1.00;;;6.10;97.90;;;;;;10460064;28;20024;-84
2023/03/07 23:57:25;;;;;;;1.40;0.82;;;6.10;97.90;;;;;;10467415;28;20100;-84
